HRHO2: North Canadian River

Data processed at Tue 04Oct2022 03:38 GMT


All information presented herein is the property of the government of the United States of America and may be revised or deleted at any time without prior notice.
Dissemination of this information without the expressed written consent of the Public Affairs Office, Tulsa District U.S. Army Corps of Engineers is strictly prohibited.
These data are gathered electronically and, as presented, have not undergone any form of quality control. These data are not guaranteed to be valid or correct.
Go to home page.
Go to station list.

Upstream stations:

Downstream station:
Previous Day
Next Day
Current Day


                            
SHEF ID:       HRHO2     North Canadian River near Harrah
STATION TYPE:  
Regulating: Stage =    15.00, Flow =     9137

                STAGE  RIV-FLOW  WTR-TEMP   DIS-OXY        PH   CONDUCT  BAT-LOAD
                   ft       cfs         F      mg/l        su   umho/cm      volt
              Ccp-Rev   Ccp-Rev   Ccp-Rev   Ccp-Rev   Ccp-Rev   Ccp-Rev   Ccp-Rev
(US/Central)
10/03 00:00      2.79        54     72.36      6.77      7.99       864     12.57
10/03 01:00      2.77        51     71.44      6.68      7.95       865     12.57
10/03 02:00      2.75        49     70.57      6.49      7.90       868     12.49
10/03 03:00      2.74        47     69.80      6.59      7.87       863     12.49
10/03 04:00      2.75        49     69.06      6.70      7.89       864     12.41
10/03 05:00      2.76        50     68.36      6.78      7.86       865     12.41
10/03 06:00      2.78        53     67.78      6.87      7.86       867     12.41
10/03 07:00      2.79        54     67.21      6.87      7.83       868     12.41
10/03 08:00      2.80        56     66.76      6.97      7.83       869     12.41
10/03 09:00      2.81        57     66.92      7.30      7.84       870     12.41
10/03 10:00      2.80        56     68.05      7.74      7.88       868     12.97
10/03 11:00      2.83        60     69.78      8.00      7.92       877     13.37
10/03 12:00      2.84        61     71.87      8.31      7.98       877     13.44
10/03 13:00      2.86        65     74.10      8.79      8.07       873     13.29
10/03 14:00      2.90        71     76.19      8.95      8.12       879     13.21
10/03 15:00      2.92        74     77.85      8.93      8.18       880     13.05
10/03 16:00      2.92        74     78.76      8.86      8.24       879     12.97
10/03 17:00      2.92        74     79.03      9.06      8.27       880     12.89
10/03 18:00      2.91        73     78.46      8.78      8.31       884     12.89
10/03 19:00      2.89        69     77.40      8.29      8.30       873     12.81
10/03 20:00      2.89        69     76.14      7.37      8.18       872     12.65
10/03 21:00      2.86        65     74.86      7.13      8.19       878     12.65
10/03 22:00      ----      ----     73.62      6.96      8.13       877     12.65
10/03 23:00      ----      ----      ----      ----      ----      ----      ----